Pagrindinis puslapis
METAR-TAF:

METAR-TAF

Oro uostai :

Land's End, Anglija

platuma: 50-06-10N, ilguma: 005-40-14W, Aukštis: 122 m

Dabartinis oras

Ataskaita buvo paskelbta 9 valandos ir 21 minutes, ne 10:20 UTC
Vėjas 10 kt iš Šiaurės/Šiaurės Vakarų
Temperatūra 5°C
Drėgmė 70%
Slėgis 998 hPa
Matomumas 10 km arba daugiau
Išsisklaidę debesys ne aukštis 2500 ft

METAR: EGHC 231020Z 34010KT 9999 SCT025 05/M00 Q0998

Laikas: 19:41 (19:41 UTC)

Prognozė

Ataskaita buvo paskelbta 10 valandos ir 35 minutes, ne 09:06 UTC
Prognozė galioja nuo 23 metu 09 UTC su 23 metu 12 UTC
Vėjas 15 kt iš Šiaurės
Matomumas 10 km arba daugiau
Išsisklaidę debesys ne aukštis 2500 ft

TAF: EGHC 230906Z 2309/2312 35015KT 9999 SCT025

Orai ataskaitas ir orų prognozės (METAR, TAF).

turimą stotys yra geltonos ir raudonos taškus žemėlapyje.

Perkelti pele per norėdami pamatyti stoties vardą.

Tada spustelėkite, norėdami matyti oro stebėjimo ir prognozės.

Norėdami pakeisti žemėlapį: spustelėkite ant žalios mygtukų su juodo kryžiaus žemyn,; žalią mygtuką su brūkšneliu, jei norite nutolinti; arba žalių rodyklių gretimoms žemėlapius.


METAR-TAF: